Time;durP1;ratioP1;P1;durP2;ratioP2;P2;SDS_P1;SDS_P2;PMS_P1;PMS_P2;Temp;Humidity;BMP_temperature;BMP_pressure;BME280_temperature;BME280_humidity;BME280_pressure;Samples;Min_cycle;Max_cycle;Signal;HPM_P1;HPM_P2
2022/05/12 00:00:43;;;;;;;10.60;4.87;;;;;;;13.41;83.90;100792.03;5030204;28;20236;-74
2022/05/12 00:03:08;;;;;;;13.47;5.40;;;;;;;13.32;85.09;100785.09;5029566;28;20233;-73
2022/05/12 00:05:34;;;;;;;13.90;4.70;;;;;;;13.39;84.57;100798.88;5030218;28;20214;-73
2022/05/12 00:07:59;;;;;;;10.67;4.30;;;;;;;13.42;84.06;100794.59;5019552;28;20198;-74
2022/05/12 00:10:26;;;;;;;14.40;5.10;;;;;;;13.33;84.95;100801.38;5010829;28;20187;-73
2022/05/12 00:12:52;;;;;;;12.87;4.80;;;;;;;13.38;84.81;100792.84;5014547;28;20200;-73
2022/05/12 00:15:24;;;;;;;10.00;4.43;;;;;;;13.42;84.90;100801.44;5040481;28;20573;-74
2022/05/12 00:17:49;;;;;;;13.70;4.90;;;;;;;13.32;85.48;100807.38;5033966;28;20218;-73
2022/05/12 00:20:17;;;;;;;14.67;5.17;;;;;;;13.29;85.59;100805.66;5033546;28;20228;-71
2022/05/12 00:22:44;;;;;;;9.87;4.70;;;;;;;13.35;85.60;100799.69;5034128;28;20247;-71
2022/05/12 00:25:15;;;;;;;12.93;5.00;;;;;;;13.37;85.66;100787.69;5035620;28;20226;-73
2022/05/12 00:27:41;;;;;;;14.93;5.40;;;;;;;13.29;85.97;100781.63;5030135;28;20694;-72
2022/05/12 00:30:09;;;;;;;14.07;5.60;;;;;;;13.36;85.77;100780.84;5029667;28;20281;-73
2022/05/12 00:32:41;;;;;;;10.13;4.43;;;;;;;13.37;85.84;100792.84;5029736;28;20213;-73
2022/05/12 00:35:07;;;;;;;14.33;4.70;;;;;;;13.35;86.48;100792.81;5028405;28;20221;-73
2022/05/12 00:37:33;;;;;;;15.60;5.43;;;;;;;13.36;86.22;100780.84;5037042;28;20232;-73
2022/05/12 00:39:59;;;;;;;14.77;6.20;;;;;;;13.27;86.73;100784.22;5028341;28;20198;-73
2022/05/12 00:42:24;;;;;;;13.00;5.80;;;;;;;13.27;87.40;100776.50;5032272;28;20309;-73
2022/05/12 00:44:49;;;;;;;13.77;5.67;;;;;;;13.19;87.45;100762.72;5031439;28;20214;-73
2022/05/12 00:47:15;;;;;;;16.00;5.37;;;;;;;13.21;87.91;100768.72;5034827;28;20952;-73
2022/05/12 00:49:41;;;;;;;12.60;6.23;;;;;;;13.23;87.94;100769.63;5031537;28;20749;-74
2022/05/12 00:52:16;;;;;;;12.83;5.30;;;;;;;13.22;88.30;100761.88;5035916;28;20198;-73
2022/05/12 00:55:24;;;;;;;11.03;5.23;;;;;;;13.23;87.92;100755.88;5030558;28;20266;-73
2022/05/12 00:57:52;;;;;;;12.57;5.20;;;;;;;13.19;88.38;100757.56;5045857;28;20201;-73
2022/05/12 01:00:19;;;;;;;13.10;5.30;;;;;;;13.20;88.70;100767.00;5031518;28;20202;-73
2022/05/12 01:02:47;;;;;;;11.53;5.43;;;;;;;13.19;89.23;100772.13;5026736;28;20274;-73
2022/05/12 01:05:14;;;;;;;9.87;5.07;;;;;;;13.20;88.72;100764.44;5040507;28;20213;-73
2022/05/12 01:07:40;;;;;;;12.33;5.37;;;;;;;13.16;89.20;100775.53;5029514;28;20251;-74
2022/05/12 01:10:08;;;;;;;13.97;5.73;;;;;;;13.18;89.45;100783.28;5029485;28;20194;-74
2022/05/12 01:12:37;;;;;;;13.30;5.57;;;;;;;13.17;89.63;100778.97;5032876;28;20193;-72
2022/05/12 01:15:03;;;;;;;15.20;5.73;;;;;;;13.18;89.62;100778.13;5033072;28;20210;-73
2022/05/12 01:17:28;;;;;;;19.30;6.27;;;;;;;13.21;89.65;100778.16;5032470;28;20189;-71
2022/05/12 01:19:54;;;;;;;15.03;5.80;;;;;;;13.19;90.20;100779.84;5028934;28;20190;-73
2022/05/12 01:22:32;;;;;;;15.80;5.93;;;;;;;13.20;90.37;100774.72;5029089;28;20288;-72
2022/05/12 01:24:59;;;;;;;14.70;5.67;;;;;;;13.24;90.11;100775.59;5027420;28;20210;-73
2022/05/12 01:27:25;;;;;;;13.20;5.07;;;;;;;13.23;90.29;100772.19;5027947;28;20205;-72
2022/05/12 01:29:56;;;;;;;15.87;5.27;;;;;;;13.26;90.24;100773.91;5031688;28;20202;-73
2022/05/12 01:32:24;;;;;;;13.90;5.43;;;;;;;13.28;89.91;100780.78;5035058;28;20564;-72
2022/05/12 01:34:52;;;;;;;14.90;6.27;;;;;;;13.33;90.33;100778.22;5049100;28;20335;-72
2022/05/12 01:37:18;;;;;;;12.43;5.30;;;;;;;13.35;90.53;100785.09;5048640;28;20671;-72
2022/05/12 01:39:44;;;;;;;11.50;5.07;;;;;;;13.39;90.77;100784.28;5049013;28;20186;-73
2022/05/12 01:42:11;;;;;;;12.80;5.30;;;;;;;13.45;90.07;100796.34;5040460;28;20571;-73
2022/05/12 01:44:37;;;;;;;9.53;5.10;;;;;;;13.50;89.99;100799.81;5038944;28;20309;-72
2022/05/12 01:47:03;;;;;;;17.53;6.10;;;;;;;13.53;89.73;100798.09;5033750;28;20225;-71
2022/05/12 01:49:28;;;;;;;13.30;5.57;;;;;;;13.58;89.87;100800.72;5031927;28;20209;-73
2022/05/12 01:51:55;;;;;;;15.37;5.43;;;;;;;13.62;89.53;100808.47;5029179;28;20183;-72
2022/05/12 01:54:22;;;;;;;12.43;5.80;;;;;;;13.62;89.43;100803.31;5028347;28;20289;-73
2022/05/12 01:56:47;;;;;;;9.07;5.27;;;;;;;13.58;89.27;100793.84;5028647;28;20186;-72
2022/05/12 01:59:13;;;;;;;10.40;5.87;;;;;;;13.58;89.16;100805.88;5033710;28;20206;-73
2022/05/12 02:01:38;;;;;;;10.30;5.73;;;;;;;13.57;89.03;100806.69;5032227;28;20217;-73
2022/05/12 02:04:05;;;;;;;12.40;5.43;;;;;;;13.60;89.17;100806.72;5025870;28;20276;-73
2022/05/12 02:06:31;;;;;;;11.17;5.07;;;;;;;13.59;89.10;100805.00;5040302;28;20217;-73
2022/05/12 02:08:57;;;;;;;13.17;5.37;;;;;;;13.59;88.12;100803.31;5028746;28;20287;-73
2022/05/12 02:11:23;;;;;;;14.00;5.50;;;;;;;13.60;88.14;100809.31;5028222;28;20202;-72
2022/05/12 02:13:48;;;;;;;9.90;5.30;;;;;;;13.58;88.70;100811.00;5013954;28;20277;-73
2022/05/12 02:16:13;;;;;;;12.37;5.53;;;;;;;13.54;88.24;100810.09;5023731;28;20218;-73
2022/05/12 02:18:39;;;;;;;9.13;5.47;;;;;;;13.53;88.59;100813.53;5045564;28;20193;-73
2022/05/12 02:21:04;;;;;;;10.80;4.80;;;;;;;13.53;88.36;100818.69;5041708;28;20201;-73
2022/05/12 02:23:30;;;;;;;12.77;5.20;;;;;;;13.56;88.13;100823.00;5043589;28;20316;-74
2022/05/12 02:25:55;;;;;;;9.77;4.47;;;;;;;13.58;87.64;100824.72;5040517;28;20222;-72
2022/05/12 02:28:21;;;;;;;13.47;4.70;;;;;;;13.63;86.13;100825.59;5040320;28;20189;-72
2022/05/12 02:30:46;;;;;;;9.77;4.70;;;;;;;13.67;85.86;100829.94;5031996;28;20222;-73
2022/05/12 02:33:11;;;;;;;8.73;3.87;;;;;;;13.70;85.13;100835.09;5028181;28;20249;-72
2022/05/12 02:35:39;;;;;;;6.50;3.53;;;;;;;13.75;84.19;100842.84;5038423;28;20186;-72
2022/05/12 02:38:06;;;;;;;8.23;3.77;;;;;;;13.74;84.03;100836.84;5031453;28;20178;-74
2022/05/12 02:40:32;;;;;;;6.13;3.63;;;;;;;13.79;83.57;100839.44;5031483;28;20244;-72
2022/05/12 02:42:58;;;;;;;6.00;3.20;;;;;;;13.83;83.14;100844.63;5038738;28;20194;-73
2022/05/12 02:45:24;;;;;;;6.93;3.07;;;;;;;13.84;83.44;100850.63;5035722;28;20222;-73
2022/05/12 02:47:49;;;;;;;10.10;2.80;;;;;;;13.83;82.75;100854.06;5042129;28;20197;-73
2022/05/12 02:50:17;;;;;;;4.50;2.50;;;;;;;13.86;81.59;100861.81;5036981;28;20205;-73
2022/05/12 02:52:42;;;;;;;5.97;2.43;;;;;;;13.92;81.86;100866.97;5030214;28;20190;-71
2022/05/12 02:55:08;;;;;;;6.53;2.87;;;;;;;13.93;79.81;100877.31;5031385;28;20210;-73
2022/05/12 02:57:34;;;;;;;4.73;2.77;;;;;;;13.93;81.11;100902.16;5031372;28;20197;-71
2022/05/12 02:59:59;;;;;;;9.07;2.77;;;;;;;13.85;81.95;100920.13;5037913;28;20186;-74
2022/05/12 03:02:25;;;;;;;8.60;2.80;;;;;;;13.78;82.25;100926.13;5038384;28;20564;-72
2022/05/12 03:04:50;;;;;;;6.73;2.60;;;;;;;13.74;82.83;100946.66;5036458;28;20252;-73
2022/05/12 03:07:15;;;;;;;6.47;2.07;;;;;;;13.59;81.14;100956.81;5030679;28;20206;-73
2022/05/12 03:09:41;;;;;;;5.00;1.93;;;;;;;13.55;81.76;100955.94;5044970;28;20269;-74
2022/05/12 03:12:06;;;;;;;4.07;1.50;;;;;;;13.44;81.11;100964.41;5032585;28;20201;-73
2022/05/12 03:14:32;;;;;;;6.17;1.83;;;;;;;13.32;80.81;100995.13;5031136;28;20210;-72
2022/05/12 03:16:57;;;;;;;3.87;1.60;;;;;;;13.23;80.84;101002.75;5031682;28;20216;-72
2022/05/12 03:19:22;;;;;;;2.30;1.40;;;;;;;13.12;80.22;101000.03;5033897;28;20194;-74
2022/05/12 03:21:48;;;;;;;3.50;1.10;;;;;;;13.05;78.94;101023.09;5033980;28;20198;-73
2022/05/12 03:24:18;;;;;;;2.47;1.20;;;;;;;12.99;79.06;101028.19;5030107;28;20210;-74
2022/05/12 03:26:45;;;;;;;2.60;1.30;;;;;;;12.92;79.39;101042.63;5030993;28;20213;-73
2022/05/12 03:29:10;;;;;;;2.63;1.40;;;;;;;12.89;79.41;101053.72;5030584;28;20190;-73
2022/05/12 03:31:36;;;;;;;2.03;1.53;;;;;;;12.89;80.07;101069.16;5035438;28;20551;-74
2022/05/12 03:34:01;;;;;;;4.63;1.50;;;;;;;12.90;80.54;101076.00;5035807;28;20213;-73
2022/05/12 03:36:27;;;;;;;1.87;1.40;;;;;;;12.83;80.75;101088.75;5045893;28;20718;-72
2022/05/12 03:38:53;;;;;;;2.33;1.37;;;;;;;12.79;81.53;101084.41;5050415;28;20182;-73
2022/05/12 03:41:18;;;;;;;4.43;1.37;;;;;;;12.73;81.46;101089.47;5050536;28;20220;-74
2022/05/12 03:46:31;;;;;;;3.57;1.47;;;;;;;12.69;82.10;101108.25;5050086;28;20224;-71
2022/05/12 03:48:56;;;;;;;4.47;1.93;;;;;;;12.72;81.98;101114.28;5030392;28;20189;-73
2022/05/12 03:51:22;;;;;;;4.60;1.27;;;;;;;12.73;82.11;101122.88;5037838;28;20205;-73
2022/05/12 03:53:47;;;;;;;6.33;1.83;;;;;;;12.74;81.59;101140.00;5033205;28;20241;-74
2022/05/12 03:56:12;;;;;;;3.20;1.70;;;;;;;12.75;81.97;101139.16;5029928;28;20175;-72
2022/05/12 03:58:38;;;;;;;2.33;1.40;;;;;;;12.76;82.04;101151.19;5030913;28;20186;-73
2022/05/12 04:01:05;;;;;;;4.47;1.87;;;;;;;12.77;82.16;101158.91;5035177;28;20656;-73
2022/05/12 04:03:30;;;;;;;4.17;1.70;;;;;;;12.70;80.90;101156.22;5037533;28;20201;-73
2022/05/12 04:05:59;;;;;;;3.70;1.87;;;;;;;12.67;80.92;101163.91;5030323;28;20957;-73
2022/05/12 04:08:25;;;;;;;3.03;1.53;;;;;;;12.63;80.65;101167.25;5030045;28;20244;-74
2022/05/12 04:10:51;;;;;;;4.80;1.40;;;;;;;12.60;81.03;101186.06;5029948;28;20325;-71
2022/05/12 04:13:17;;;;;;;5.27;1.73;;;;;;;12.63;80.89;101190.38;5035372;28;20225;-74
2022/05/12 04:15:43;;;;;;;5.87;1.63;;;;;;;12.63;80.76;101192.94;5030903;28;20201;-73
2022/05/12 04:18:08;;;;;;;5.00;1.83;;;;;;;12.68;80.55;101207.59;5035526;28;20218;-73
2022/05/12 04:20:36;;;;;;;4.83;1.60;;;;;;;12.71;80.66;101215.34;5036748;28;20274;-73
2022/05/12 04:23:03;;;;;;;3.93;1.60;;;;;;;12.73;80.27;101218.78;5029310;28;20217;-71
2022/05/12 04:25:28;;;;;;;4.90;2.03;;;;;;;12.77;80.89;101224.88;5038538;28;20213;-73
2022/05/12 04:27:53;;;;;;;6.40;1.80;;;;;;;12.73;80.84;101236.78;5046462;28;20194;-72
2022/05/12 04:30:24;;;;;;;2.57;1.40;;;;;;;12.73;81.38;101236.78;5036861;28;20197;-73
2022/05/12 04:32:49;;;;;;;3.80;1.60;;;;;;;12.65;81.45;101243.53;5030192;28;20341;-73
2022/05/12 04:35:15;;;;;;;4.27;1.87;;;;;;;12.68;81.22;101255.56;5036712;28;20217;-73
2022/05/12 04:37:49;;;;;;;5.20;1.67;;;;;;;12.61;81.06;101259.72;5029717;28;20193;-73
2022/05/12 04:40:30;;;;;;;5.40;1.87;;;;;;;12.60;80.37;101272.53;5029221;28;20236;-73
2022/05/12 04:42:57;;;;;;;6.73;1.70;;;;;;;12.64;80.84;101287.16;5033460;28;20189;-72
2022/05/12 04:45:26;;;;;;;7.60;2.23;;;;;;;12.55;80.56;101276.72;5038402;28;20217;-74
2022/05/12 04:47:51;;;;;;;4.83;2.30;;;;;;;12.56;80.52;101293.88;5031713;28;20186;-73
2022/05/12 04:50:20;;;;;;;6.20;2.40;;;;;;;12.58;81.02;101299.91;5032579;28;20713;-73
2022/05/12 04:52:47;;;;;;;8.20;3.07;;;;;;;12.56;79.75;101302.44;5026605;28;20191;-72
2022/05/12 04:55:13;;;;;;;5.63;2.33;;;;;;;12.59;79.43;101310.19;5035125;28;20218;-73
2022/05/12 04:57:43;;;;;;;4.17;2.07;;;;;;;12.66;79.50;101311.16;5033890;28;20545;-72
2022/05/12 05:00:13;;;;;;;8.30;2.83;;;;;;;12.73;79.77;101316.44;5028467;28;20216;-73
2022/05/12 05:02:39;;;;;;;6.67;2.77;;;;;;;12.77;80.59;101314.81;5027640;28;20346;-74
2022/05/12 05:05:06;;;;;;;6.33;2.83;;;;;;;12.75;79.83;101327.63;5032401;28;20682;-72
2022/05/12 05:07:31;;;;;;;5.57;2.77;;;;;;;12.79;79.05;101334.56;5038428;28;20205;-72
2022/05/12 05:09:56;;;;;;;6.23;2.83;;;;;;;12.88;79.70;101339.88;5048277;28;20178;-72
2022/05/12 05:12:21;;;;;;;6.40;2.63;;;;;;;12.89;77.78;101344.16;5029236;28;20186;-73
2022/05/12 05:14:47;;;;;;;6.40;2.33;;;;;;;12.89;76.61;101344.16;5028725;28;20202;-73
2022/05/12 05:17:12;;;;;;;8.27;3.00;;;;;;;12.91;77.08;101352.75;5029448;28;20791;-74
2022/05/12 05:19:37;;;;;;;9.07;3.40;;;;;;;12.93;76.46;101357.94;5029032;28;20248;-73
2022/05/12 05:22:03;;;;;;;6.33;2.80;;;;;;;12.92;76.66;101351.06;5026896;28;20245;-73
2022/05/12 05:24:29;;;;;;;9.00;2.70;;;;;;;13.01;77.08;101360.69;5039039;28;20224;-73
2022/05/12 05:26:54;;;;;;;7.80;3.07;;;;;;;12.93;77.67;101370.78;5029227;28;20198;-74
2022/05/12 05:29:20;;;;;;;4.70;3.23;;;;;;;12.83;78.63;101381.75;5029349;28;20198;-71
2022/05/12 05:31:45;;;;;;;7.53;3.20;;;;;;;12.86;78.45;101374.94;5028754;28;20198;-73
2022/05/12 05:34:10;;;;;;;7.23;3.17;;;;;;;13.10;76.71;101382.28;5028732;28;20245;-73
2022/05/12 05:36:39;;;;;;;6.03;2.73;;;;;;;13.41;74.82;101389.69;5028699;28;20187;-73
2022/05/12 05:39:06;;;;;;;4.87;2.57;;;;;;;13.35;74.47;101396.44;5027789;28;20194;-73
2022/05/12 05:41:31;;;;;;;7.07;2.77;;;;;;;13.31;75.92;101395.50;5014075;28;20190;-73
2022/05/12 05:43:58;;;;;;;9.37;3.17;;;;;;;13.24;76.09;101409.13;5008975;28;20210;-73
2022/05/12 05:46:23;;;;;;;9.83;3.03;;;;;;;13.40;75.84;101418.81;5010912;28;20211;-75
2022/05/12 05:48:51;;;;;;;8.00;3.23;;;;;;;13.35;76.70;101422.16;5011366;28;20214;-73
2022/05/12 05:54:16;;;;;;;7.13;3.10;;;;;;;13.38;76.42;101435.06;5028905;28;20218;-73
2022/05/12 05:56:43;;;;;;;9.70;3.27;;;;;;;13.44;75.99;101435.19;5016850;28;20799;-73
2022/05/12 05:59:08;;;;;;;6.97;3.50;;;;;;;13.54;75.97;101429.34;5012274;28;20281;-73
2022/05/12 06:01:34;;;;;;;8.93;3.27;;;;;;;13.62;75.10;101438.94;5012809;28;20274;-71
2022/05/12 06:03:59;;;;;;;4.80;2.47;;;;;;;13.94;74.24;101435.16;5012005;28;20207;-73
2022/05/12 06:06:25;;;;;;;10.50;2.97;;;;;;;14.04;74.15;101443.91;5012739;28;20217;-74
2022/05/12 06:08:50;;;;;;;7.37;3.07;;;;;;;14.02;73.50;101451.59;5012627;28;20191;-74
2022/05/12 06:11:15;;;;;;;6.43;2.53;;;;;;;13.94;73.36;101457.44;5012191;28;20191;-72
2022/05/12 06:13:42;;;;;;;8.47;2.60;;;;;;;13.76;73.97;101470.06;5011506;28;20211;-73
2022/05/12 06:16:08;;;;;;;9.23;2.60;;;;;;;13.75;74.28;101474.31;5011487;28;20280;-73
2022/05/12 06:18:36;;;;;;;4.53;2.27;;;;;;;13.92;72.42;101467.75;5030854;28;20642;-72
2022/05/12 06:21:04;;;;;;;7.63;2.87;;;;;;;13.99;72.09;101471.28;5031203;28;20202;-72
2022/05/12 06:23:30;;;;;;;10.23;2.43;;;;;;;14.51;69.73;101478.97;5013657;28;20206;-75
2022/05/12 06:25:56;;;;;;;7.83;2.70;;;;;;;14.69;69.69;101480.06;5031604;28;20280;-73
2022/05/12 06:28:22;;;;;;;8.20;2.90;;;;;;;14.50;71.01;101485.81;5030153;28;20294;-74
2022/05/12 06:30:47;;;;;;;7.03;2.50;;;;;;;14.31;71.28;101493.28;5017485;28;20298;-74
2022/05/12 06:33:18;;;;;;;6.17;2.43;;;;;;;14.47;70.55;101497.81;5030679;28;20190;-75
2022/05/12 06:35:43;;;;;;;6.13;2.33;;;;;;;14.45;70.62;101505.50;5032061;28;20179;-74
2022/05/12 06:38:10;;;;;;;10.63;3.13;;;;;;;14.32;71.14;101516.47;5029837;28;20197;-73
2022/05/12 06:40:36;;;;;;;7.63;2.80;;;;;;;14.21;71.16;101514.56;5031740;28;20179;-74
2022/05/12 06:43:07;;;;;;;5.47;2.40;;;;;;;14.15;70.53;101520.50;5031537;28;20274;-74
2022/05/12 06:45:33;;;;;;;10.43;2.70;;;;;;;14.29;70.56;101533.59;5030933;28;20260;-73
2022/05/12 06:47:58;;;;;;;7.70;2.50;;;;;;;14.25;70.41;101527.53;5016414;28;20274;-74
2022/05/12 06:50:28;;;;;;;7.23;2.40;;;;;;;14.72;68.87;101531.66;5030951;28;20605;-76
2022/05/12 06:52:54;;;;;;;9.33;2.90;;;;;;;15.11;67.36;101526.16;5031153;28;20615;-73
2022/05/12 06:55:20;;;;;;;6.00;2.77;;;;;;;15.22;66.34;101527.13;5030793;28;20222;-73
2022/05/12 06:57:46;;;;;;;7.07;2.57;;;;;;;15.66;66.52;101529.38;5029059;28;20274;-74
2022/05/12 07:00:16;;;;;;;4.67;2.50;;;;;;;15.50;65.75;101530.09;5031321;28;20285;-74
2022/05/12 07:02:42;;;;;;;8.07;2.50;;;;;;;15.79;65.77;101540.72;5029357;28;20210;-74
2022/05/12 07:05:08;;;;;;;6.30;2.47;;;;;;;15.46;66.84;101542.91;5013150;28;20227;-74
2022/05/12 07:07:35;;;;;;;6.93;2.83;;;;;;;15.22;66.64;101553.81;5010798;28;20218;-75
2022/05/12 07:10:00;;;;;;;9.17;2.70;;;;;;;15.16;66.86;101553.75;5022576;28;20202;-75
2022/05/12 07:12:26;;;;;;;6.27;2.57;;;;;;;15.06;66.37;101562.19;5030800;28;20264;-73
2022/05/12 07:14:52;;;;;;;8.03;2.57;;;;;;;15.15;66.81;101564.06;5023949;28;20295;-75
2022/05/12 07:17:21;;;;;;;6.43;2.57;;;;;;;15.77;65.31;101569.09;5035691;28;20854;-74
2022/05/12 07:19:47;;;;;;;5.13;2.17;;;;;;;16.20;63.47;101570.31;5040333;28;20191;-75
2022/05/12 07:27:40;;;;;;;7.90;2.50;;;;;;;16.14;64.70;101585.78;5031033;28;20190;-71
2022/05/12 07:30:06;;;;;;;8.10;2.20;;;;;;;16.21;63.38;101597.94;5030654;28;20191;-72
2022/05/12 07:32:32;;;;;;;6.30;2.73;;;;;;;15.73;63.62;101606.06;5030800;28;20214;-72
2022/05/12 07:34:57;;;;;;;4.20;2.10;;;;;;;16.62;61.32;101594.81;5030594;28;20194;-72
2022/05/12 07:37:23;;;;;;;5.47;2.17;;;;;;;16.71;60.78;101599.22;5027890;28;20557;-72
2022/05/12 07:39:48;;;;;;;5.97;2.10;;;;;;;17.32;59.76;101596.09;5011259;28;20179;-72
2022/05/12 07:42:14;;;;;;;4.17;2.10;;;;;;;17.00;58.76;101585.56;5010461;28;20191;-72
2022/05/12 07:44:40;;;;;;;5.57;2.10;;;;;;;16.70;60.05;101610.41;5010202;28;20290;-72
2022/05/12 07:47:10;;;;;;;3.93;1.77;;;;;;;16.83;60.13;101607.03;5010226;28;20637;-72
2022/05/12 07:49:37;;;;;;;4.83;1.63;;;;;;;17.28;58.39;101604.69;5010707;28;20263;-72
2022/05/12 07:52:05;;;;;;;5.20;2.30;;;;;;;16.92;59.86;101604.50;5010404;28;20307;-72
2022/05/12 07:54:30;;;;;;;4.87;2.03;;;;;;;17.24;58.85;101601.25;5010317;28;20561;-73
2022/05/12 07:56:57;;;;;;;4.67;1.53;;;;;;;18.09;56.34;101600.63;5009974;28;20193;-72
2022/05/12 07:59:22;;;;;;;5.13;1.63;;;;;;;17.77;56.65;101615.25;5010064;28;20241;-72
2022/05/12 08:01:48;;;;;;;5.33;1.87;;;;;;;17.10;59.05;101613.25;5010481;28;20656;-72
2022/05/12 08:04:13;;;;;;;4.13;1.53;;;;;;;17.06;59.20;101624.44;5008507;28;20207;-72
2022/05/12 08:06:43;;;;;;;4.87;1.80;;;;;;;16.85;58.00;101634.66;5010061;28;20206;-72
2022/05/12 08:09:09;;;;;;;6.67;1.60;;;;;;;17.51;57.50;101636.78;5014267;28;20197;-72
2022/05/12 08:11:34;;;;;;;4.30;1.70;;;;;;;17.49;56.34;101635.88;5025131;28;20199;-72
2022/05/12 08:13:59;;;;;;;6.17;1.60;;;;;;;17.17;57.17;101643.47;5009954;28;20202;-72
2022/05/12 08:16:25;;;;;;;3.57;1.40;;;;;;;16.93;58.20;101652.81;4996637;28;20349;-72
2022/05/12 08:18:51;;;;;;;3.47;1.53;;;;;;;17.04;57.64;101657.19;5043420;28;20246;-72
2022/05/12 08:21:19;;;;;;;5.67;1.90;;;;;;;17.09;58.38;101652.06;5029660;28;20206;-72
2022/05/12 08:23:44;;;;;;;5.17;1.80;;;;;;;17.06;59.18;101658.09;5027014;28;20206;-72
2022/05/12 08:26:10;;;;;;;4.30;1.57;;;;;;;17.13;58.86;101662.44;5040242;28;20690;-72
2022/05/12 08:28:37;;;;;;;2.90;1.40;;;;;;;17.97;56.89;101652.44;5025240;28;20199;-72
2022/05/12 08:31:03;;;;;;;2.80;1.57;;;;;;;17.97;54.74;101657.63;5021999;28;20221;-72
2022/05/12 08:33:28;;;;;;;6.70;1.83;;;;;;;17.66;55.58;101662.72;5027701;28;20293;-72
2022/05/12 08:35:53;;;;;;;4.43;1.50;;;;;;;17.39;56.07;101662.56;5028226;28;20185;-72
2022/05/12 08:38:20;;;;;;;5.57;1.70;;;;;;;17.22;56.34;101664.22;5029075;28;20845;-72
2022/05/12 08:41:09;;;;;;;2.67;1.30;;;;;;;17.92;55.67;101668.88;5029526;28;20182;-73
2022/05/12 08:43:43;;;;;;;6.17;1.63;;;;;;;17.84;54.82;101667.97;5014335;28;20590;-72
2022/05/12 08:46:14;;;;;;;5.50;1.50;;;;;;;17.88;55.27;101670.59;5016839;28;20222;-72
2022/05/12 08:48:43;;;;;;;5.63;1.60;;;;;;;17.39;54.54;101670.34;5029281;28;20190;-72
2022/05/12 08:51:13;;;;;;;4.77;1.67;;;;;;;18.46;52.75;101676.75;5029220;28;20193;-72
2022/05/12 08:53:52;;;;;;;5.23;1.50;;;;;;;18.89;51.68;101674.16;5029358;28;20210;-72
2022/05/12 08:56:21;;;;;;;2.87;1.37;;;;;;;19.11;51.67;101677.59;5027364;28;20588;-72
2022/05/12 08:58:47;;;;;;;5.53;1.57;;;;;;;18.98;50.60;101670.69;5032487;28;20259;-72
2022/05/12 09:01:38;;;;;;;3.77;1.30;;;;;;;18.85;52.47;101672.47;5034977;28;20260;-72
2022/05/12 09:04:09;;;;;;;3.17;1.23;;;;;;;18.50;53.37;101679.38;5028237;28;20249;-72
2022/05/12 09:07:10;;;;;;;4.90;1.47;;;;;;;18.78;51.25;101675.03;5029033;28;20261;-72
2022/05/12 09:09:48;;;;;;;3.60;1.50;;;;;;;19.79;49.36;101681.72;5027204;28;20209;-72
2022/05/12 09:12:31;;;;;;;2.77;1.13;;;;;;;18.83;51.02;101674.16;5029129;28;20672;-72
2022/05/12 09:15:06;;;;;;;3.13;1.20;;;;;;;18.56;49.69;101683.72;5028754;28;20214;-72
2022/05/12 09:17:42;;;;;;;4.60;1.43;;;;;;;19.19;49.17;101676.72;5029171;28;20216;-72
2022/05/12 09:20:10;;;;;;;2.57;1.20;;;;;;;19.77;47.77;101680.00;5036670;28;20276;-72
2022/05/12 09:22:35;;;;;;;5.77;1.47;;;;;;;19.85;46.92;101675.66;5037942;28;20192;-72
2022/05/12 09:25:01;;;;;;;3.73;1.13;;;;;;;20.37;44.78;101671.88;5032237;28;20210;-72
2022/05/12 09:27:33;;;;;;;3.93;1.33;;;;;;;19.34;47.47;101676.69;5033127;28;20668;-72
2022/05/12 09:29:59;;;;;;;2.70;1.00;;;;;;;18.98;48.81;101675.91;5032542;28;20198;-72
2022/05/12 09:32:30;;;;;;;3.77;1.03;;;;;;;19.49;48.36;101684.44;5032940;28;20208;-72
2022/05/12 09:35:19;;;;;;;2.13;1.07;;;;;;;20.42;46.71;101681.38;5032640;28;20240;-72
2022/05/12 09:37:45;;;;;;;2.50;1.10;;;;;;;20.73;44.93;101682.84;5017868;28;20226;-72
2022/05/12 09:40:16;;;;;;;4.17;1.10;;;;;;;20.29;46.19;101671.06;5013024;28;20652;-72
2022/05/12 09:42:45;;;;;;;3.03;1.10;;;;;;;20.18;45.10;101691.94;5012503;28;20190;-72
2022/05/12 09:45:32;;;;;;;3.10;0.90;;;;;;;20.62;44.76;101686.41;5012481;28;20226;-72
2022/05/12 09:48:28;;;;;;;3.93;1.20;;;;;;;21.37;42.40;101673.56;5012431;28;20237;-72
2022/05/12 09:51:21;;;;;;;2.23;1.23;;;;;;;21.31;41.60;101668.41;5012439;28;20207;-72
2022/05/12 09:53:49;;;;;;;3.50;0.90;;;;;;;20.86;41.84;101678.44;5012802;28;20611;-72
2022/05/12 09:56:35;;;;;;;1.80;0.90;;;;;;;20.92;43.02;101670.56;5012713;28;20179;-72
2022/05/12 09:59:14;;;;;;;3.37;0.90;;;;;;;21.75;41.33;101671.38;5010835;28;20269;-73
2022/05/12 10:01:58;;;;;;;2.07;1.10;;;;;;;21.90;42.03;101675.53;5012643;28;20732;-72
2022/05/12 10:10:26;;;;;;;2.03;0.87;;;;;;;21.12;42.15;101689.47;5030214;28;20182;-72
2022/05/12 10:13:15;;;;;;;4.00;1.00;;;;;;;21.94;40.13;101685.03;5012830;28;20183;-72
2022/05/12 10:15:43;;;;;;;2.73;1.00;;;;;;;21.66;39.43;101694.06;5011827;28;20171;-72
2022/05/12 10:18:08;;;;;;;2.30;0.87;;;;;;;22.04;39.17;101691.84;5012178;28;20199;-72
2022/05/12 10:20:42;;;;;;;2.20;0.90;;;;;;;22.22;38.81;101689.00;5043813;28;20200;-72
2022/05/12 10:23:24;;;;;;;3.73;1.23;;;;;;;21.24;40.50;101690.19;5033083;28;20202;-72
2022/05/12 10:26:16;;;;;;;2.60;0.90;;;;;;;21.77;39.21;101689.63;5030626;28;20765;-72
2022/05/12 10:28:52;;;;;;;1.90;0.83;;;;;;;21.03;39.76;101685.22;5018075;28;20230;-72
2022/05/12 10:31:25;;;;;;;2.93;0.93;;;;;;;20.38;40.88;101699.63;5011145;28;20606;-72
2022/05/12 10:34:13;;;;;;;3.60;1.07;;;;;;;20.05;42.69;101697.19;5010129;28;20215;-72
2022/05/12 10:37:06;;;;;;;2.60;1.07;;;;;;;20.97;40.24;101697.44;5011229;28;20207;-72
2022/05/12 10:40:01;;;;;;;4.50;1.10;;;;;;;21.49;39.56;101685.59;5011465;28;20236;-72
2022/05/12 10:43:00;;;;;;;5.47;1.37;;;;;;;22.06;38.92;101693.56;5011866;28;20210;-73
2022/05/12 10:45:44;;;;;;;2.33;1.03;;;;;;;22.19;38.70;101691.63;5011442;28;20685;-72
2022/05/12 10:48:32;;;;;;;3.87;1.03;;;;;;;22.26;39.06;101688.06;5011722;28;20205;-72
2022/05/12 10:51:03;;;;;;;3.27;1.03;;;;;;;21.85;37.85;101685.16;5011102;28;20555;-72
2022/05/12 10:53:53;;;;;;;2.30;1.10;;;;;;;20.87;39.98;101704.41;5011297;28;20206;-72
2022/05/12 10:56:29;;;;;;;3.07;1.20;;;;;;;20.45;41.52;101703.94;5011528;28;20179;-72
2022/05/12 10:59:13;;;;;;;2.70;1.20;;;;;;;19.85;42.19;101714.66;5011724;28;20183;-72
2022/05/12 11:01:45;;;;;;;4.93;1.20;;;;;;;21.47;39.90;101700.38;5011347;28;20528;-72
2022/05/12 11:04:24;;;;;;;2.03;0.97;;;;;;;21.71;40.40;101693.19;5011360;28;20245;-73
2022/05/12 11:06:56;;;;;;;2.87;1.03;;;;;;;21.15;40.97;101705.09;5011369;28;20288;-72
2022/05/12 11:09:30;;;;;;;2.57;1.20;;;;;;;22.03;39.13;101687.53;5016616;28;20189;-72
2022/05/12 11:11:59;;;;;;;3.07;1.20;;;;;;;21.42;39.55;101692.59;5030636;28;20190;-72
2022/05/12 11:14:36;;;;;;;4.80;1.20;;;;;;;21.63;39.70;101696.72;5033203;28;20213;-72
2022/05/12 11:17:19;;;;;;;2.70;1.00;;;;;;;21.75;39.40;101697.44;5038722;28;20232;-73
2022/05/12 11:20:01;;;;;;;4.93;1.20;;;;;;;22.79;38.31;101685.47;5028565;28;20190;-72
2022/05/12 11:23:08;;;;;;;3.30;1.10;;;;;;;22.38;37.79;101698.31;5030983;28;20229;-72
2022/05/12 11:26:05;;;;;;;2.40;0.90;;;;;;;21.46;39.36;101701.28;5027735;28;20211;-72
2022/05/12 11:31:37;;;;;;;4.33;1.00;;;;;;;20.33;40.85;101709.19;5038715;28;20655;-72
2022/05/12 11:34:06;;;;;;;4.17;0.90;;;;;;;20.53;40.53;101709.91;5030660;28;20202;-72
2022/05/12 11:36:51;;;;;;;3.10;0.97;;;;;;;20.85;40.89;101703.59;5029591;28;20551;-72
2022/05/12 11:39:25;;;;;;;2.67;1.00;;;;;;;22.01;38.77;101695.38;5018195;28;20187;-72
2022/05/12 11:44:23;;;;;;;3.23;1.20;;;;;;;21.46;40.43;101704.72;5020702;28;20190;-73
2022/05/12 11:45:38;;;;;;;3.27;1.00;;;;;;;22.09;38.38;101690.03;5030159;28;20258;-72
2022/05/12 11:48:16;;;;;;;3.23;0.90;;;;;;;21.12;38.71;101708.59;5029840;28;20198;-72
2022/05/12 11:50:56;;;;;;;3.07;0.90;;;;;;;21.54;40.06;101702.03;5030741;28;20192;-71
2022/05/12 11:53:27;;;;;;;3.47;0.97;;;;;;;21.67;38.69;101707.09;5034098;28;20293;-72
2022/05/12 11:56:09;;;;;;;3.50;1.07;;;;;;;21.65;38.28;101706.25;5038972;28;20566;-72